Koksijde, Belgium
Current Conditions -  °F | °C
As of 4:55 PM on Sunday 21 Dec 2014 (Local Time) from EBFN Reporting Station
Broken Clouds Broken Clouds  
Wind Chill: 42°   Ceiling: 3000
Heat Index: 48°   Visibility: 6mi
Dew Point: 46°   Wind: 15mph
Humidity: 93%   Direction: 240°WSW
Pressure: 30.3"   Gusts: NA
Location:  51.11°N, 2.68°E
Report Text: EBFN 211555Z 24013KT 9999 FEW017 SCT024 BKN030 09/08 Q1026 WHT
Loading
Personal Weather Stations






























Interactive Weather Map New forecast layout! Learn more

10-Day Weather Forecast

Advertisements
Track Severe Weather on mobile